LFMV/AVN METAR and TAF weather

Enter ICAO airport designator
Station Type Date Time Source
LFMV METAR 2019/05/23 19:00 UTC NOAA

LFMV 231900Z AUTO 20007KT CAVOK 20/11 Q1015 NOSIG


Station Type Date Time Source
LFMV Decoded METAR 2019/05/23 19:00 UTC NOAA

Station name not available
May 23, 2019 - 03:00 PM EDT / 2019.05.23 1900 UTC
Wind: from the SSW (200 degrees) at 8 MPH (7 KT):0
Visibility: greater than 7 mile(s):0
Temperature: 68 F (20 C)
Dew Point: 51 F (11 C)
Relative Humidity: 56%
Pressure (altimeter): 29.97 in. Hg (1015 hPa)
ob: LFMV 231900Z AUTO 20007KT CAVOK 20/11 Q1015 NOSIG
cycle: 19

Station Type Date Time Source
LFMV TAF 2019/05/23 15:00 UTC NOAA

TAF LFMV 231400Z 2315/2415 VRB03KT CAVOK

Example: see airport list